createdAt,value
2023-01-10T00:00:39.827Z,67.05
2023-01-10T00:01:41.316Z,66.99
2023-01-10T00:02:42.902Z,66.87
2023-01-10T00:03:44.390Z,66.97
2023-01-10T00:04:45.874Z,66.84
2023-01-10T00:05:47.580Z,66.71
2023-01-10T00:06:49.121Z,66.86
2023-01-10T00:07:50.568Z,66.86
2023-01-10T00:08:52.102Z,66.78
2023-01-10T00:09:53.600Z,66.69
2023-01-10T00:10:55.060Z,66.87
2023-01-10T00:12:15.184Z,66.73
2023-01-10T00:13:26.321Z,66.42
2023-01-10T00:14:29.110Z,66.33
2023-01-10T00:15:33.605Z,66.32
2023-01-10T00:16:37.084Z,66.15
2023-01-10T00:17:38.583Z,66.15
2023-01-10T00:18:40.027Z,65.91
2023-01-10T00:19:41.554Z,65.83
2023-01-10T00:20:44.709Z,65.80
2023-01-10T00:21:46.238Z,65.32
2023-01-10T00:22:49.421Z,65.61
2023-01-10T00:23:50.895Z,65.62
2023-01-10T00:24:52.338Z,65.58
2023-01-10T00:25:53.875Z,65.50
2023-01-10T00:26:55.369Z,65.48
2023-01-10T00:28:15.347Z,65.39
2023-01-10T00:29:19.986Z,65.15
2023-01-10T00:30:21.457Z,65.28
2023-01-10T00:31:22.980Z,64.98
2023-01-10T00:32:24.453Z,64.96
2023-01-10T00:33:25.914Z,64.96
2023-01-10T00:34:27.430Z,65.04
2023-01-10T00:35:28.889Z,64.86
2023-01-10T00:36:30.404Z,65.00
2023-01-10T00:37:31.900Z,64.84
2023-01-10T00:38:33.816Z,64.78
2023-01-10T00:39:35.265Z,64.75
2023-01-10T00:40:36.795Z,64.82
2023-01-10T00:41:56.924Z,64.79
2023-01-10T00:43:17.384Z,64.64
2023-01-10T00:44:18.869Z,64.88
2023-01-10T00:45:20.788Z,64.80
2023-01-10T00:46:22.389Z,64.92
2023-01-10T00:47:23.923Z,64.80
2023-01-10T00:48:25.444Z,64.59
2023-01-10T00:49:26.934Z,64.78
2023-01-10T00:50:28.543Z,64.77
2023-01-10T00:51:30.043Z,64.78
2023-01-10T00:52:31.648Z,64.58
2023-01-10T00:53:33.135Z,64.82
2023-01-10T00:54:34.595Z,64.63
2023-01-10T00:55:36.171Z,64.63
2023-01-10T00:56:37.705Z,64.68
2023-01-10T00:57:39.261Z,64.67
2023-01-10T00:58:40.774Z,64.45
2023-01-10T00:59:42.273Z,64.28
2023-01-10T01:00:46.890Z,64.31
2023-01-10T01:01:48.703Z,64.32
2023-01-10T01:02:51.626Z,64.38
2023-01-10T01:03:53.253Z,64.53
2023-01-10T01:04:54.695Z,64.33
2023-01-10T01:05:56.164Z,64.45
2023-01-10T01:06:59.968Z,64.41
2023-01-10T01:08:01.543Z,64.46
2023-01-10T01:09:03.061Z,64.64
2023-01-10T01:10:22.978Z,64.47
2023-01-10T01:11:24.713Z,64.38
2023-01-10T01:12:26.221Z,64.69
2023-01-10T01:13:27.735Z,64.50
2023-01-10T01:14:29.203Z,64.68
2023-01-10T01:15:30.806Z,64.47
2023-01-10T01:16:32.357Z,64.70
2023-01-10T01:17:33.894Z,64.67
2023-01-10T01:18:35.543Z,64.36
2023-01-10T01:19:37.061Z,64.58
2023-01-10T01:20:38.981Z,64.65
2023-01-10T01:21:40.644Z,64.56
2023-01-10T01:22:42.108Z,64.43
2023-01-10T01:23:43.645Z,64.38
2023-01-10T01:24:45.200Z,64.40
2023-01-10T01:25:49.465Z,64.38
2023-01-10T01:26:50.932Z,64.26
2023-01-10T01:27:52.470Z,64.33
2023-01-10T01:28:53.953Z,64.13
2023-01-10T01:29:55.479Z,64.41
2023-01-10T01:30:57.035Z,64.36
2023-01-10T01:31:58.601Z,64.18
2023-01-10T01:33:00.122Z,64.10
2023-01-10T01:34:01.766Z,64.36
2023-01-10T01:35:03.442Z,64.20
2023-01-10T01:36:07.860Z,64.40
2023-01-10T01:37:09.387Z,64.46
2023-01-10T01:38:10.861Z,64.46
2023-01-10T01:39:12.345Z,64.27
2023-01-10T01:40:14.676Z,64.47
2023-01-10T01:41:54.699Z,64.43
2023-01-10T01:42:56.313Z,64.43
2023-01-10T01:44:07.612Z,64.65
2023-01-10T01:45:09.085Z,64.37
2023-01-10T01:46:10.619Z,64.36
2023-01-10T01:47:18.560Z,64.39
2023-01-10T01:48:22.087Z,64.29
2023-01-10T01:49:23.722Z,64.10
2023-01-10T01:50:37.120Z,64.24
2023-01-10T01:51:38.614Z,64.53
2023-01-10T01:52:40.088Z,64.58
2023-01-10T01:53:48.469Z,64.42
2023-01-10T01:54:49.977Z,64.56
2023-01-10T01:55:51.831Z,64.55
2023-01-10T01:57:01.125Z,64.59
2023-01-10T01:58:04.019Z,64.69
2023-01-10T01:59:07.056Z,64.83
2023-01-10T02:00:10.312Z,64.78
2023-01-10T02:01:14.887Z,65.09
2023-01-10T02:02:20.394Z,64.91
2023-01-10T02:03:22.010Z,65.02
2023-01-10T02:04:24.514Z,64.67
2023-01-10T02:05:26.053Z,65.12
2023-01-10T02:06:27.501Z,65.20
2023-01-10T02:07:29.498Z,64.70
2023-01-10T02:08:30.991Z,65.02
2023-01-10T02:09:32.455Z,64.96
2023-01-10T02:10:52.735Z,64.88
2023-01-10T02:11:54.683Z,64.59
2023-01-10T02:12:56.179Z,64.88
2023-01-10T02:13:57.692Z,64.59
2023-01-10T02:14:59.140Z,64.62
2023-01-10T02:16:00.904Z,64.65
2023-01-10T02:17:02.430Z,64.66
2023-01-10T02:18:04.067Z,64.88
2023-01-10T02:19:06.648Z,64.54
2023-01-10T02:20:08.650Z,64.73
2023-01-10T02:21:19.266Z,64.78
2023-01-10T02:22:35.169Z,64.51
2023-01-10T02:23:42.539Z,64.36
2023-01-10T02:24:48.212Z,63.93
2023-01-10T02:25:52.486Z,64.40
2023-01-10T02:27:12.672Z,64.04
2023-01-10T02:28:14.102Z,64.23
2023-01-10T02:29:38.543Z,64.34
2023-01-10T02:30:45.849Z,64.41
2023-01-10T02:32:05.914Z,64.12
2023-01-10T02:33:07.341Z,64.09
2023-01-10T02:34:18.047Z,63.83
2023-01-10T02:35:34.297Z,64.03
2023-01-10T02:36:54.799Z,63.99
2023-01-10T02:38:16.507Z,64.01
2023-01-10T02:39:17.968Z,63.91
2023-01-10T02:40:24.534Z,64.19
2023-01-10T02:41:34.939Z,64.07
2023-01-10T02:42:42.006Z,63.92
2023-01-10T02:43:48.038Z,64.13
2023-01-10T02:44:59.141Z,64.14
2023-01-10T02:46:05.592Z,63.86
2023-01-10T02:47:07.529Z,63.93
2023-01-10T02:48:09.103Z,64.00
2023-01-10T02:49:10.613Z,64.02
2023-01-10T02:50:26.925Z,64.02
2023-01-10T02:51:29.069Z,63.67
2023-01-10T02:52:30.563Z,63.92
2023-01-10T02:53:37.579Z,63.54
2023-01-10T02:54:39.060Z,63.81
2023-01-10T02:55:54.481Z,64.02
2023-01-10T02:57:14.620Z,63.95
2023-01-10T02:58:28.183Z,64.13
2023-01-10T02:59:50.943Z,63.82
2023-01-10T03:01:02.329Z,63.90
2023-01-10T03:02:15.568Z,64.11
2023-01-10T03:03:20.096Z,64.32
2023-01-10T03:04:39.879Z,64.29
2023-01-10T03:05:41.321Z,64.31
2023-01-10T03:06:47.265Z,64.44
2023-01-10T03:07:48.743Z,64.64
2023-01-10T03:08:51.288Z,64.73
2023-01-10T03:09:55.850Z,64.47
2023-01-10T03:10:57.316Z,64.75
2023-01-10T03:12:02.756Z,64.61
2023-01-10T03:13:11.758Z,64.92
2023-01-10T03:14:13.237Z,64.57
2023-01-10T03:15:15.634Z,64.88
2023-01-10T03:16:17.688Z,64.71
2023-01-10T03:17:19.289Z,64.76
2023-01-10T03:18:23.725Z,64.87
2023-01-10T03:19:26.977Z,64.78
2023-01-10T03:20:29.102Z,64.83
2023-01-10T03:21:30.790Z,64.70
2023-01-10T03:22:32.972Z,64.90
2023-01-10T03:23:34.612Z,64.65
2023-01-10T03:24:37.087Z,64.86
2023-01-10T03:25:38.562Z,64.64
2023-01-10T03:26:42.860Z,64.61
2023-01-10T03:27:44.388Z,64.94
2023-01-10T03:28:47.357Z,65.03
2023-01-10T03:29:54.154Z,65.20
2023-01-10T03:30:58.045Z,65.15
2023-01-10T03:32:00.883Z,65.14
2023-01-10T03:33:02.382Z,65.31
2023-01-10T03:34:03.876Z,65.69
2023-01-10T03:35:05.405Z,65.91
2023-01-10T03:36:30.886Z,66.05
2023-01-10T03:37:47.244Z,65.88
2023-01-10T03:38:59.309Z,66.18
2023-01-10T03:40:04.736Z,66.25
2023-01-10T03:41:15.411Z,66.43
2023-01-10T03:42:25.995Z,66.53
2023-01-10T03:44:04.960Z,66.41
2023-01-10T03:45:07.025Z,66.51
2023-01-10T03:46:12.223Z,66.80
2023-01-10T03:47:33.953Z,66.50
2023-01-10T03:48:36.547Z,66.60
2023-01-10T03:49:39.076Z,66.75
2023-01-10T03:50:40.552Z,66.38
2023-01-10T03:51:42.021Z,66.52
2023-01-10T03:52:43.525Z,66.45
2023-01-10T03:53:45.045Z,66.30
2023-01-10T03:54:46.585Z,66.49
2023-01-10T03:55:48.127Z,66.22
2023-01-10T03:56:50.801Z,66.28
2023-01-10T03:57:52.329Z,66.29
2023-01-10T03:58:53.830Z,66.40
2023-01-10T03:59:57.737Z,66.59
2023-01-10T04:00:59.294Z,66.84
2023-01-10T04:02:01.037Z,66.93
2023-01-10T04:03:02.801Z,66.70
2023-01-10T04:04:04.804Z,67.33
2023-01-10T04:05:06.468Z,67.87
2023-01-10T04:06:07.968Z,67.39
2023-01-10T04:07:09.518Z,67.29
2023-01-10T04:08:11.028Z,67.14
2023-01-10T04:09:12.587Z,66.85
2023-01-10T04:10:14.364Z,67.15
2023-01-10T04:11:15.838Z,66.85
2023-01-10T04:12:17.372Z,67.05
2023-01-10T04:13:18.851Z,66.72
2023-01-10T04:14:20.386Z,66.74
2023-01-10T04:15:21.858Z,66.53
2023-01-10T04:16:23.408Z,66.68
2023-01-10T04:17:24.926Z,66.53
2023-01-10T04:18:26.437Z,66.31
2023-01-10T04:19:27.935Z,66.19
2023-01-10T04:20:29.397Z,66.24
2023-01-10T04:21:30.846Z,66.09
2023-01-10T04:22:32.347Z,66.44
2023-01-10T04:23:33.837Z,65.77
2023-01-10T04:24:35.324Z,66.05
2023-01-10T04:25:37.012Z,66.07
2023-01-10T04:26:38.563Z,65.96
2023-01-10T04:27:40.017Z,65.98
2023-01-10T04:28:41.548Z,65.97
2023-01-10T04:29:43.005Z,65.88
2023-01-10T04:30:44.464Z,66.09
2023-01-10T04:31:46.021Z,66.13
2023-01-10T04:32:47.699Z,66.20
2023-01-10T04:33:49.308Z,66.16
2023-01-10T04:34:50.747Z,66.20
2023-01-10T04:35:52.271Z,66.20
2023-01-10T04:36:53.755Z,66.20
2023-01-10T04:37:55.264Z,65.71
2023-01-10T04:38:56.876Z,65.84
2023-01-10T04:39:58.416Z,65.96
2023-01-10T04:40:59.888Z,65.84
2023-01-10T04:42:01.416Z,65.93
2023-01-10T04:43:02.890Z,65.94
2023-01-10T04:44:04.809Z,66.24
2023-01-10T04:45:06.596Z,66.14
2023-01-10T04:46:08.101Z,66.18
2023-01-10T04:47:09.687Z,66.02
2023-01-10T04:48:11.125Z,66.24
2023-01-10T04:49:12.701Z,66.18
2023-01-10T04:50:14.176Z,66.39
2023-01-10T04:51:15.651Z,66.43
2023-01-10T04:52:17.198Z,66.36
2023-01-10T04:53:18.945Z,66.38
2023-01-10T04:54:21.226Z,66.99
2023-01-10T04:55:22.701Z,67.02
2023-01-10T04:56:24.219Z,67.24
2023-01-10T04:57:25.752Z,67.58
2023-01-10T04:58:27.280Z,67.18
2023-01-10T04:59:28.833Z,67.36
2023-01-10T05:00:30.401Z,67.46
2023-01-10T05:01:32.553Z,66.96
2023-01-10T05:02:34.174Z,67.35
2023-01-10T05:03:35.690Z,67.56
2023-01-10T05:04:37.206Z,67.57
2023-01-10T05:05:38.662Z,67.54
2023-01-10T05:06:40.604Z,67.56
2023-01-10T05:07:42.213Z,67.56
2023-01-10T05:08:43.911Z,67.77
2023-01-10T05:09:45.391Z,67.85
2023-01-10T05:10:46.889Z,67.68
2023-01-10T05:11:48.356Z,67.87
2023-01-10T05:12:49.889Z,68.22
2023-01-10T05:13:51.392Z,67.97
2023-01-10T05:14:52.873Z,68.15
2023-01-10T05:15:56.151Z,68.33
2023-01-10T05:16:57.609Z,68.42
2023-01-10T05:17:59.442Z,68.22
2023-01-10T05:19:00.927Z,68.36
2023-01-10T05:20:02.400Z,68.65
2023-01-10T05:21:04.623Z,68.19
2023-01-10T05:22:06.210Z,68.63
2023-01-10T05:23:07.727Z,68.39
2023-01-10T05:24:09.343Z,68.71
2023-01-10T05:25:10.827Z,68.77
2023-01-10T05:26:19.093Z,68.32
2023-01-10T05:27:20.579Z,68.29
2023-01-10T05:28:22.079Z,68.32
2023-01-10T05:29:23.648Z,68.18
2023-01-10T05:30:25.189Z,68.31
2023-01-10T05:31:26.781Z,68.41
2023-01-10T05:32:29.546Z,68.51
2023-01-10T05:33:31.043Z,68.64
2023-01-10T05:34:32.492Z,68.78
2023-01-10T05:35:34.043Z,68.51
2023-01-10T05:36:35.749Z,68.62
2023-01-10T05:37:38.146Z,68.73
2023-01-10T05:38:39.772Z,68.58
2023-01-10T05:39:43.103Z,68.64
2023-01-10T05:40:44.556Z,68.34
2023-01-10T05:41:46.068Z,68.40
2023-01-10T05:42:47.541Z,68.27
2023-01-10T05:43:49.336Z,68.53
2023-01-10T05:44:50.807Z,68.22
2023-01-10T05:45:52.411Z,68.57
2023-01-10T05:46:53.884Z,68.27
2023-01-10T05:47:55.383Z,68.61
2023-01-10T05:48:56.893Z,68.43
2023-01-10T05:49:58.353Z,68.17
2023-01-10T05:50:59.847Z,68.12
2023-01-10T05:52:01.297Z,68.30
2023-01-10T05:53:05.863Z,67.91
2023-01-10T05:54:07.446Z,68.07
2023-01-10T05:55:08.953Z,68.06
2023-01-10T05:56:10.613Z,68.24
2023-01-10T05:57:12.238Z,68.40
2023-01-10T05:58:13.771Z,68.40
2023-01-10T05:59:27.547Z,68.35
2023-01-10T06:00:29.718Z,68.18
2023-01-10T06:01:31.236Z,68.15
2023-01-10T06:02:33.033Z,68.33
2023-01-10T06:03:34.689Z,68.41
2023-01-10T06:04:36.166Z,68.30
2023-01-10T06:05:37.694Z,67.97
2023-01-10T06:06:39.161Z,68.36
2023-01-10T06:07:40.642Z,68.27
2023-01-10T06:08:42.265Z,68.11
2023-01-10T06:09:43.755Z,68.01
2023-01-10T06:10:45.242Z,68.28
2023-01-10T06:11:46.749Z,67.89
2023-01-10T06:12:49.731Z,67.98
2023-01-10T06:13:53.837Z,67.96
2023-01-10T06:14:55.335Z,67.71
2023-01-10T06:15:56.980Z,67.68
2023-01-10T06:16:58.497Z,67.85
2023-01-10T06:18:00.014Z,67.57
2023-01-10T06:19:01.597Z,67.88
2023-01-10T06:20:03.232Z,67.54
2023-01-10T06:21:04.731Z,67.89
2023-01-10T06:22:06.257Z,68.13
2023-01-10T06:23:07.739Z,67.88
2023-01-10T06:24:09.330Z,67.89
2023-01-10T06:25:11.032Z,67.77
2023-01-10T06:26:12.525Z,67.74
2023-01-10T06:27:14.050Z,67.76
2023-01-10T06:28:15.667Z,68.03
2023-01-10T06:29:17.209Z,67.87
2023-01-10T06:30:18.786Z,68.29
2023-01-10T06:31:22.504Z,68.30
2023-01-10T06:32:24.191Z,68.25
2023-01-10T06:33:26.527Z,67.79
2023-01-10T06:34:28.046Z,68.16
2023-01-10T06:35:29.811Z,68.04
2023-01-10T06:36:31.360Z,68.26
2023-01-10T06:37:32.816Z,67.83
2023-01-10T06:38:34.400Z,67.73
2023-01-10T06:39:36.073Z,67.56
2023-01-10T06:40:37.626Z,67.58
2023-01-10T06:41:39.089Z,67.50
2023-01-10T06:42:40.708Z,67.55
2023-01-10T06:43:42.615Z,68.05
2023-01-10T06:44:44.107Z,67.71
2023-01-10T06:45:45.681Z,68.29
2023-01-10T06:46:47.228Z,67.83
2023-01-10T06:47:48.689Z,67.60
2023-01-10T06:48:50.406Z,67.98
2023-01-10T06:49:51.917Z,67.76
2023-01-10T06:50:53.459Z,67.40
2023-01-10T06:51:54.956Z,67.44
2023-01-10T06:53:00.640Z,67.57
2023-01-10T06:54:02.136Z,67.32
2023-01-10T06:55:03.896Z,67.48
2023-01-10T06:56:06.109Z,67.65
2023-01-10T06:57:07.764Z,67.53
2023-01-10T06:58:09.233Z,67.38
2023-01-10T06:59:10.745Z,67.41
2023-01-10T07:00:12.491Z,67.45
2023-01-10T07:01:14.648Z,67.61
2023-01-10T07:02:16.371Z,67.71
2023-01-10T07:03:17.909Z,67.56
2023-01-10T07:04:19.366Z,67.77
2023-01-10T07:05:21.540Z,68.14
2023-01-10T07:06:23.101Z,67.87
2023-01-10T07:07:24.557Z,67.87
2023-01-10T07:08:26.022Z,67.85
2023-01-10T07:09:27.940Z,68.03
2023-01-10T07:10:29.524Z,67.71
2023-01-10T07:11:31.898Z,68.00
2023-01-10T07:12:33.460Z,67.91
2023-01-10T07:13:35.008Z,67.93
2023-01-10T07:14:36.507Z,68.41
2023-01-10T07:15:41.451Z,68.24
2023-01-10T07:16:42.968Z,68.23
2023-01-10T07:17:44.440Z,68.89
2023-01-10T07:18:45.951Z,68.52
2023-01-10T07:19:47.439Z,68.73
2023-01-10T07:20:48.895Z,68.61
2023-01-10T07:21:50.416Z,68.42
2023-01-10T07:22:58.290Z,68.53
2023-01-10T07:24:01.608Z,68.42
2023-01-10T07:25:04.735Z,68.37
2023-01-10T07:26:06.979Z,67.82
2023-01-10T07:27:08.446Z,68.13
2023-01-10T07:28:09.940Z,68.29
2023-01-10T07:29:11.413Z,68.06
2023-01-10T07:30:12.960Z,68.11
2023-01-10T07:31:15.089Z,68.28
2023-01-10T07:32:16.641Z,68.17
2023-01-10T07:33:18.118Z,68.03
2023-01-10T07:34:19.635Z,68.41
2023-01-10T07:35:21.418Z,68.25
2023-01-10T07:36:22.929Z,67.92
2023-01-10T07:37:24.416Z,68.12
2023-01-10T07:38:25.908Z,68.09
2023-01-10T07:39:27.375Z,68.20
2023-01-10T07:40:29.851Z,68.30
2023-01-10T07:41:31.359Z,68.49
2023-01-10T07:42:33.451Z,68.54
2023-01-10T07:43:35.159Z,69.19
2023-01-10T07:44:36.723Z,69.46
2023-01-10T07:45:38.225Z,69.11
2023-01-10T07:46:39.746Z,69.56
2023-01-10T07:47:41.276Z,68.95
2023-01-10T07:48:42.859Z,69.30
2023-01-10T07:49:44.400Z,69.86
2023-01-10T07:50:46.729Z,69.59
2023-01-10T07:51:48.191Z,69.31
2023-01-10T07:52:49.692Z,69.28
2023-01-10T07:53:51.362Z,69.56
2023-01-10T07:54:53.292Z,69.18
2023-01-10T07:55:54.911Z,68.66
2023-01-10T07:56:56.397Z,68.40
2023-01-10T07:57:57.863Z,68.64
2023-01-10T07:59:01.197Z,68.90
2023-01-10T08:00:02.971Z,68.64
2023-01-10T08:01:07.204Z,68.45
2023-01-10T08:02:09.654Z,68.95
2023-01-10T08:03:11.299Z,68.45
2023-01-10T08:04:12.876Z,68.66
2023-01-10T08:05:14.676Z,68.58
2023-01-10T08:06:16.898Z,68.90
2023-01-10T08:07:18.901Z,68.98
2023-01-10T08:08:20.503Z,68.78
2023-01-10T08:09:22.003Z,68.69
2023-01-10T08:10:23.541Z,68.76
2023-01-10T08:11:25.020Z,69.27
2023-01-10T08:12:26.617Z,69.14
2023-01-10T08:13:28.579Z,68.34
2023-01-10T08:14:30.078Z,68.62
2023-01-10T08:15:31.613Z,68.47
2023-01-10T08:16:33.969Z,68.43
2023-01-10T08:17:35.529Z,68.94
2023-01-10T08:18:39.039Z,68.25
2023-01-10T08:19:40.484Z,68.18
2023-01-10T08:20:42.110Z,68.49
2023-01-10T08:21:43.604Z,68.38
2023-01-10T08:22:45.139Z,68.00
2023-01-10T08:23:46.659Z,68.09
2023-01-10T08:24:48.219Z,68.56
2023-01-10T08:25:51.495Z,67.83
2023-01-10T08:26:52.972Z,67.94
2023-01-10T08:27:54.484Z,68.37
2023-01-10T08:28:55.988Z,68.51
2023-01-10T08:29:57.541Z,68.20
2023-01-10T08:30:59.075Z,67.95
2023-01-10T08:32:00.555Z,68.15
2023-01-10T08:33:02.518Z,68.28
2023-01-10T08:34:04.682Z,69.02
2023-01-10T08:35:06.619Z,68.43
2023-01-10T08:36:15.026Z,68.47
2023-01-10T08:37:16.521Z,68.71
2023-01-10T08:38:18.005Z,68.16
2023-01-10T08:39:21.832Z,67.85
2023-01-10T08:40:23.355Z,68.23
2023-01-10T08:41:24.879Z,68.34
2023-01-10T08:42:26.419Z,68.59
2023-01-10T08:43:27.891Z,68.65
2023-01-10T08:44:29.481Z,68.67
2023-01-10T08:45:31.252Z,68.70
2023-01-10T08:46:32.827Z,68.62
2023-01-10T08:47:37.629Z,68.53
2023-01-10T08:48:39.907Z,68.35
2023-01-10T08:49:41.434Z,68.16
2023-01-10T08:50:42.894Z,67.53
2023-01-10T08:51:44.726Z,67.45
2023-01-10T08:52:46.675Z,67.54
2023-01-10T08:53:48.171Z,67.35
2023-01-10T08:54:50.269Z,66.79
2023-01-10T08:55:51.817Z,67.31
2023-01-10T08:56:53.312Z,67.24
2023-01-10T08:57:54.956Z,67.29
2023-01-10T08:58:56.481Z,67.47
2023-01-10T08:59:57.974Z,67.42
2023-01-10T09:00:59.664Z,67.43
2023-01-10T09:02:01.263Z,67.69
2023-01-10T09:03:02.836Z,67.76
2023-01-10T09:04:05.327Z,67.61
2023-01-10T09:05:14.990Z,67.57
2023-01-10T09:06:24.280Z,67.62
2023-01-10T09:07:25.752Z,67.48
2023-01-10T09:08:27.308Z,67.29
2023-01-10T09:09:28.891Z,67.94
2023-01-10T09:10:30.428Z,67.24
2023-01-10T09:11:32.066Z,67.69
2023-01-10T09:12:52.224Z,67.74
2023-01-10T09:13:53.740Z,67.66
2023-01-10T09:14:55.469Z,67.84
2023-01-10T09:15:57.049Z,67.44
2023-01-10T09:16:58.571Z,67.30
2023-01-10T09:18:01.063Z,67.56
2023-01-10T09:19:02.713Z,67.41
2023-01-10T09:20:06.646Z,67.19
2023-01-10T09:21:08.132Z,67.45
2023-01-10T09:22:09.619Z,67.22
2023-01-10T09:23:11.957Z,66.99
2023-01-10T09:24:13.552Z,67.41
2023-01-10T09:25:15.265Z,67.56
2023-01-10T09:26:16.917Z,67.47
2023-01-10T09:27:18.406Z,67.40
2023-01-10T09:28:20.257Z,67.22
2023-01-10T09:29:21.808Z,67.30
2023-01-10T09:30:23.288Z,67.25
2023-01-10T09:31:24.811Z,67.45
2023-01-10T09:32:26.310Z,67.28
2023-01-10T09:33:35.009Z,67.32
2023-01-10T09:34:46.607Z,67.19
2023-01-10T09:35:48.154Z,67.08
2023-01-10T09:36:49.704Z,67.66
2023-01-10T09:37:53.567Z,67.34
2023-01-10T09:38:55.065Z,67.22
2023-01-10T09:39:56.582Z,67.10
2023-01-10T09:41:16.771Z,67.16
2023-01-10T09:42:18.378Z,67.20
2023-01-10T09:43:34.753Z,66.97
2023-01-10T09:44:56.488Z,67.21
2023-01-10T09:46:00.152Z,67.25
2023-01-10T09:47:22.778Z,67.10
2023-01-10T09:48:25.013Z,67.12
2023-01-10T09:49:37.301Z,67.04
2023-01-10T09:50:47.840Z,66.70
2023-01-10T09:51:50.608Z,66.68
2023-01-10T09:53:00.860Z,66.86
2023-01-10T09:54:11.064Z,66.75
2023-01-10T09:55:17.823Z,66.34
2023-01-10T09:56:19.369Z,65.89
2023-01-10T09:57:21.400Z,66.21
2023-01-10T09:58:24.277Z,65.44
2023-01-10T09:59:48.888Z,65.63
2023-01-10T10:00:59.276Z,65.74
2023-01-10T10:02:04.319Z,65.40
2023-01-10T10:03:06.057Z,65.98
2023-01-10T10:04:14.432Z,65.69
2023-01-10T10:05:19.456Z,65.53
2023-01-10T10:06:21.175Z,65.80
2023-01-10T10:07:22.650Z,65.75
2023-01-10T10:08:24.145Z,65.67
2023-01-10T10:09:26.337Z,65.34
2023-01-10T10:10:32.405Z,65.86
2023-01-10T10:11:36.627Z,65.16
2023-01-10T10:12:47.605Z,65.28
2023-01-10T10:13:55.620Z,64.88
2023-01-10T10:15:00.997Z,64.82
2023-01-10T10:16:05.524Z,65.00
2023-01-10T10:17:19.965Z,64.87
2023-01-10T10:18:36.192Z,64.73
2023-01-10T10:19:44.786Z,64.69
2023-01-10T10:20:49.046Z,65.11
2023-01-10T10:21:53.564Z,64.65
2023-01-10T10:23:21.066Z,64.25
2023-01-10T10:24:42.898Z,64.22
2023-01-10T10:25:44.479Z,65.10
2023-01-10T10:26:49.679Z,65.04
2023-01-10T10:28:03.275Z,64.67
2023-01-10T10:29:25.461Z,64.64
2023-01-10T10:30:38.545Z,64.86
2023-01-10T10:31:58.799Z,64.95
2023-01-10T10:33:03.598Z,63.43
2023-01-10T10:34:10.831Z,63.35
2023-01-10T10:35:29.995Z,63.83
2023-01-10T10:36:37.573Z,63.52
2023-01-10T10:37:40.761Z,63.69
2023-01-10T10:38:43.695Z,63.02
2023-01-10T10:39:47.348Z,62.93
2023-01-10T10:40:48.866Z,63.12
2023-01-10T10:41:52.510Z,63.23
2023-01-10T10:42:55.160Z,63.21
2023-01-10T10:43:56.696Z,63.05
2023-01-10T10:45:00.903Z,63.30
2023-01-10T10:46:08.630Z,62.43
2023-01-10T10:47:12.725Z,62.99
2023-01-10T10:48:16.446Z,63.16
2023-01-10T10:49:18.868Z,63.26
2023-01-10T10:50:35.570Z,63.27
2023-01-10T10:51:37.007Z,63.11
2023-01-10T10:52:38.521Z,63.16
2023-01-10T10:53:40.014Z,63.11
2023-01-10T10:54:41.590Z,63.19
2023-01-10T10:55:43.080Z,63.29
2023-01-10T10:56:44.556Z,62.95
2023-01-10T10:57:59.561Z,62.81
2023-01-10T10:59:01.843Z,62.87
2023-01-10T11:00:03.972Z,63.02
2023-01-10T11:01:05.717Z,63.36
2023-01-10T11:02:14.098Z,63.48
2023-01-10T11:03:34.218Z,63.09
2023-01-10T11:04:35.811Z,62.48
2023-01-10T11:05:38.043Z,62.66
2023-01-10T11:06:41.085Z,62.76
2023-01-10T11:07:42.636Z,62.83
2023-01-10T11:08:45.317Z,62.47
2023-01-10T11:09:53.748Z,62.07
2023-01-10T11:10:56.161Z,61.90
2023-01-10T11:11:59.246Z,62.23
2023-01-10T11:13:01.021Z,62.47
2023-01-10T11:14:03.802Z,62.46
2023-01-10T11:15:05.521Z,62.29
2023-01-10T11:16:07.337Z,62.92
2023-01-10T11:17:19.311Z,62.43
2023-01-10T11:18:21.716Z,63.03
2023-01-10T11:19:24.348Z,62.51
2023-01-10T11:20:25.880Z,62.06
2023-01-10T11:21:27.380Z,62.46
2023-01-10T11:22:29.678Z,61.98
2023-01-10T11:23:31.404Z,61.74
2023-01-10T11:24:36.614Z,61.03
2023-01-10T11:25:38.181Z,61.49
2023-01-10T11:26:40.523Z,61.54
2023-01-10T11:27:49.825Z,61.68
2023-01-10T11:28:51.638Z,61.55
2023-01-10T11:29:56.257Z,61.53
2023-01-10T11:30:59.081Z,61.96
2023-01-10T11:32:01.748Z,62.16
2023-01-10T11:33:04.626Z,62.34
2023-01-10T11:34:07.158Z,61.74
2023-01-10T11:35:10.006Z,61.76
2023-01-10T11:36:15.902Z,61.62
2023-01-10T11:37:17.378Z,60.53
2023-01-10T11:38:19.639Z,61.00
2023-01-10T11:39:21.133Z,60.86
2023-01-10T11:40:24.112Z,60.81
2023-01-10T11:41:27.366Z,60.49
2023-01-10T11:42:30.004Z,61.52
2023-01-10T11:43:35.643Z,61.03
2023-01-10T11:44:37.166Z,60.27
2023-01-10T11:45:40.810Z,60.16
2023-01-10T11:46:45.520Z,59.56
2023-01-10T11:47:48.382Z,59.11
2023-01-10T11:49:07.823Z,59.58
2023-01-10T11:50:10.339Z,59.67
2023-01-10T11:51:17.655Z,59.65
2023-01-10T11:52:21.532Z,59.74
2023-01-10T11:53:34.883Z,58.26
2023-01-10T11:54:36.421Z,58.60
2023-01-10T11:55:37.881Z,58.96
2023-01-10T11:56:41.570Z,59.12
2023-01-10T11:57:43.088Z,59.43
2023-01-10T11:58:44.544Z,58.60
2023-01-10T11:59:54.949Z,58.96
2023-01-10T12:00:58.780Z,58.68
2023-01-10T12:02:16.547Z,58.97
2023-01-10T12:03:44.220Z,59.29
2023-01-10T12:04:47.706Z,59.09
2023-01-10T12:05:50.011Z,59.27
2023-01-10T12:06:52.575Z,59.21
2023-01-10T12:07:57.744Z,59.64
2023-01-10T12:08:59.333Z,59.75
2023-01-10T12:10:01.586Z,59.37
2023-01-10T12:11:24.954Z,59.66
2023-01-10T12:12:34.239Z,59.98
2023-01-10T12:13:51.550Z,59.95
2023-01-10T12:14:53.514Z,59.97
2023-01-10T12:16:14.117Z,59.45
2023-01-10T12:17:26.440Z,58.82
2023-01-10T12:18:27.963Z,58.78
2023-01-10T12:19:29.706Z,58.92
2023-01-10T12:20:31.876Z,59.30
2023-01-10T12:21:36.383Z,59.60
2023-01-10T12:22:41.372Z,59.83
2023-01-10T12:23:44.498Z,59.99
2023-01-10T12:24:46.199Z,59.92
2023-01-10T12:25:47.718Z,59.99
2023-01-10T12:26:51.044Z,60.04
2023-01-10T12:27:52.561Z,60.08
2023-01-10T12:28:54.306Z,60.15
2023-01-10T12:30:16.170Z,60.20
2023-01-10T12:31:18.706Z,60.17
2023-01-10T12:32:21.739Z,60.25
2023-01-10T12:33:24.278Z,60.53
2023-01-10T12:34:27.189Z,60.19
2023-01-10T12:35:42.539Z,60.07
2023-01-10T12:36:47.440Z,60.23
2023-01-10T12:37:50.821Z,59.65
2023-01-10T12:39:04.153Z,59.23
2023-01-10T12:40:13.852Z,59.22
2023-01-10T12:41:36.193Z,59.48
2023-01-10T12:43:04.592Z,59.42
2023-01-10T12:44:11.651Z,59.63
2023-01-10T12:45:14.098Z,59.83
2023-01-10T12:46:33.607Z,59.61
2023-01-10T12:48:00.843Z,59.45
2023-01-10T12:49:03.544Z,59.78
2023-01-10T12:50:06.011Z,59.10
2023-01-10T12:51:07.830Z,59.66
2023-01-10T12:52:11.841Z,59.69
2023-01-10T12:53:18.406Z,59.92
2023-01-10T12:54:21.039Z,59.44
2023-01-10T12:55:24.011Z,59.58
2023-01-10T12:56:25.540Z,59.63
2023-01-10T12:57:36.781Z,60.02
2023-01-10T12:58:43.113Z,59.65
2023-01-10T12:59:44.665Z,59.47
2023-01-10T13:00:48.610Z,59.34
2023-01-10T13:01:52.131Z,59.58
2023-01-10T13:02:55.299Z,59.61
2023-01-10T13:03:58.373Z,59.39
2023-01-10T13:05:00.210Z,58.87
2023-01-10T13:06:01.787Z,58.93
2023-01-10T13:07:03.436Z,58.87
2023-01-10T13:08:06.727Z,58.43
2023-01-10T13:09:09.281Z,58.62
2023-01-10T13:10:13.768Z,58.85
2023-01-10T13:11:15.519Z,59.31
2023-01-10T13:12:20.234Z,59.21
2023-01-10T13:13:21.709Z,59.01
2023-01-10T13:14:25.409Z,59.12
2023-01-10T13:15:28.509Z,59.16
2023-01-10T13:16:50.290Z,59.47
2023-01-10T13:17:53.753Z,59.42
2023-01-10T13:19:21.386Z,58.95
2023-01-10T13:20:22.963Z,59.18
2023-01-10T13:21:24.460Z,59.50
2023-01-10T13:22:25.974Z,59.40
2023-01-10T13:23:30.199Z,59.45
2023-01-10T13:24:31.774Z,59.62
2023-01-10T13:25:35.084Z,59.03
2023-01-10T13:26:56.576Z,59.13
2023-01-10T13:28:07.089Z,59.50
2023-01-10T13:29:11.336Z,59.64
2023-01-10T13:30:24.925Z,59.56
2023-01-10T13:31:28.744Z,59.42
2023-01-10T13:32:30.902Z,59.61
2023-01-10T13:33:50.988Z,59.58
2023-01-10T13:34:52.644Z,59.77
2023-01-10T13:35:54.811Z,59.69
2023-01-10T13:36:56.983Z,59.91
2023-01-10T13:37:58.688Z,59.48
2023-01-10T13:39:02.058Z,59.42
2023-01-10T13:40:04.452Z,59.74
2023-01-10T13:41:06.719Z,59.81
2023-01-10T13:42:26.436Z,59.76
2023-01-10T13:43:34.409Z,59.81
2023-01-10T13:44:54.861Z,59.49
2023-01-10T13:46:16.411Z,59.04